• Join FlightAware (Why Join?)
  • Login
  • US Flag 
Rudolph Flight #1: Arrived! 
04:36PM EST


 

Airport Tracker/Info


-or-


 

Live Flight TrackerFlight Track Log ✈ SWA419 ✈ 19-Jun-2013 ✈ KBWI - KLIT

Flight Track Log - Related Links

Times and Time Zones

All times are in EDT time to prevent confusion due to time zone crossing. See the SWA419 flight status page for this flight to view local times or setup timezone preferences in your user account.

Time Position Orientation Groundspeed Altitude Reporting Facility
EDT Latitude Longitude Course Direction KTS MPH feet Rate Location/Type
11:37AM 39.1833 -76.7667 211° Southwest 216 249 2,600  Level Potomac TRACON
11:38AM 39.1833 -76.8500 270° West 260 299 5,700 3,120 Climbing Potomac TRACON
11:39AM 39.2000 -76.9500 282° West 263 303 8,900 2,580 Climbing Potomac TRACON
11:40AM 39.2000 -77.0333 270° West 292 336 10,700 2,040 Climbing Potomac TRACON
11:41AM 39.1169 -77.2342 242° Southwest 354 407 14,600 2,160 Climbing Washington Center
11:42AM 39.1092 -77.2244 211° Southwest  Level FlightAware Approximate
11:42AM 39.0839 -77.3592 251° West 359 413 16,900  Level Washington Center
11:43AM 39.0553 -77.4628 250° West 371 427 18,400 1,860 Climbing Washington Center
11:44AM 39.0153 -77.6086 251° West 395 455 20,700 2,160 Climbing Washington Center
11:45AM 38.9772 -77.7544 251° West 400 460 22,700 1,920 Climbing Washington Center
11:46AM 38.9414 -77.8922 252° West 400 460 24,600 1,800 Climbing Washington Center
11:47AM 38.9056 -78.0217 250° West 400 460 26,400 1,740 Climbing Washington Center
11:48AM 38.8694 -78.1486 250° West 395 455 28,100 1,620 Climbing Washington Center
11:49AM 38.8500 -78.2811 259° West 384 442 29,700 1,560 Climbing Washington Center
11:50AM 38.8511 -78.4144 271° West 384 442 31,300 1,380 Climbing Washington Center
11:51AM 38.8375 -78.5419 262° West 378 435 32,500 1,260 Climbing Washington Center
11:52AM 38.8200 -78.6664 260° West 365 420 33,900 1,380 Climbing Washington Center
11:53AM 38.8042 -78.7883 261° West 360 414 35,300 1,020 Climbing Washington Center
11:54AM 38.7864 -78.9047 259° West 348 400 36,000 300 Climbing Washington Center
11:55AM 38.7706 -79.0239 260° West 348 400 36,000  Level Washington Center
11:56AM 38.7547 -79.1431 260° West 348 400 36,000  Level Washington Center
11:57AM 38.7431 -79.2542 262° West 348 400 36,000  Level Washington Center
11:58AM 38.7247 -79.3731 259° West 353 406 36,000  Level Washington Center
11:59AM 38.7083 -79.4892 260° West 348 400 36,000  Level Washington Center
12:00PM 38.6875 -79.6186 258° West 348 400 36,000  Level Washington Center
12:01PM 38.6708 -79.7372 260° West 348 400 36,000  Level Washington Center
12:02PM 38.6522 -79.8558 259° West 348 400 36,000  Level Washington Center
12:03PM 38.6322 -79.9703 257° West 338 389 36,000  Level Indianapolis Center
12:04PM 38.6139 -80.0911 259° West 344 396 36,000  Level Indianapolis Center
12:06PM 38.5958 -80.2164 260° West 343 395 36,000  Level Indianapolis Center
12:07PM 38.5778 -80.3344 259° West 349 402 36,000  Level Indianapolis Center
12:08PM 38.5594 -80.4542 259° West 348 400 36,000  Level Indianapolis Center
12:09PM 38.5369 -80.6019 259° West 351 404 36,000  Level Indianapolis Center
12:10PM 38.5169 -80.7247 258° West 352 405 36,000  Level Indianapolis Center
12:11PM 38.4986 -80.8492 259° West 356 410 36,000  Level Indianapolis Center
12:12PM 38.4722 -80.9708 255° West 354 407 36,000  Level Indianapolis Center
12:13PM 38.4411 -81.0917 252° West 358 412 36,000  Level Indianapolis Center
12:14PM 38.4108 -81.2128 252° West 356 410 36,000  Level Indianapolis Center
12:15PM 38.3783 -81.3331 251° West 357 411 36,000  Level Indianapolis Center
12:16PM 38.3469 -81.4567 252° West 362 417 36,000  Level Indianapolis Center
12:17PM 38.3092 -81.6031 252° West 361 415 36,000  Level Indianapolis Center
12:18PM 38.2775 -81.7264 252° West 363 418 36,000  Level Indianapolis Center
12:19PM 38.2453 -81.8489 252° West 362 417 36,000  Level Indianapolis Center
12:20PM 38.2131 -81.9711 251° West 364 419 36,000  Level Indianapolis Center
12:21PM 38.1808 -82.0939 252° West 366 421 36,000  Level Indianapolis Center
12:22PM 38.1481 -82.2172 251° West 367 422 36,000  Level Indianapolis Center
12:23PM 38.1153 -82.3403 251° West 366 421 36,000  Level Indianapolis Center
12:24PM 38.0811 -82.4678 251° West 367 422 36,000  Level Indianapolis Center
12:25PM 38.0422 -82.6131 251° West 373 429 36,000  Level Indianapolis Center
12:26PM 38.0086 -82.7369 251° West 372 428 36,000  Level Indianapolis Center
12:27PM 37.9742 -82.8617 251° West 374 430 36,000  Level Indianapolis Center
12:28PM 37.9400 -82.9886 251° West 380 437 36,000  Level Indianapolis Center
12:29PM 37.9058 -83.1156 251° West 381 438 36,000  Level Indianapolis Center
12:30PM 37.8703 -83.2400 250° West 378 435 36,000  Level Indianapolis Center
12:31PM 37.8297 -83.3886 251° West 383 441 36,000  Level Indianapolis Center
12:32PM 37.8150 -83.5197 262° West 379 436 36,000  Level Indianapolis Center
12:33PM 37.7869 -83.6494 255° West 380 437 36,000  Level Indianapolis Center
12:34PM 37.7489 -83.7761 249° West 384 442 36,000  Level Indianapolis Center
12:35PM 37.7114 -83.9033 250° West 385 443 36,000  Level Indianapolis Center
12:36PM 37.6672 -84.0522 249° West 388 447 36,000  Level Indianapolis Center
12:37PM 37.6292 -84.1800 249° West 389 448 36,000  Level Indianapolis Center
12:39PM 37.5911 -84.3092 250° West 392 451 36,000  Level Indianapolis Center
12:40PM 37.5528 -84.4372 249° West 392 451 36,000  Level Indianapolis Center
12:41PM 37.5142 -84.5681 250° West 396 456 36,000  Level Indianapolis Center
12:42PM 37.4736 -84.6983 249° West 399 459 36,000  Level Indianapolis Center
12:43PM 37.4278 -84.8508 249° West 400 460 36,000  Level Indianapolis Center
12:44PM 37.3878 -84.9819 249° West 401 461 36,000  Level Indianapolis Center
12:45PM 37.3472 -85.1131 249° West 402 463 36,000  Level Indianapolis Center
12:46PM 37.3069 -85.2444 249° West 403 464 36,000  Level Indianapolis Center
12:47PM 37.2661 -85.3758 249° West 404 465 36,000  Level Indianapolis Center
12:48PM 37.2197 -85.5217 248° West 405 466 36,000  Level Indianapolis Center
12:49PM 37.1831 -85.6422 249° West 407 468 36,000  Level Indianapolis Center
12:50PM 37.1342 -85.7956 248° West 404 465 36,000  Level Indianapolis Center
12:51PM 37.0928 -85.9281 249° West 405 466 36,000  Level Indianapolis Center
12:52PM 37.0508 -86.0606 248° West 405 466 36,000  Level Indianapolis Center
12:53PM 37.0081 -86.1931 248° West 407 468 36,000  Level Indianapolis Center
12:54PM 36.9656 -86.3264 248° West 409 471 36,000  Level Indianapolis Center
12:55PM 36.9228 -86.4644 249° West 408 470 36,000  Level Memphis Center
12:56PM 36.8747 -86.5964 246° West 413 475 36,000  Level Memphis Center
12:57PM 36.8286 -86.7256 246° West 418 481 36,000  Level Memphis Center
12:58PM 36.7806 -86.8625 246° West 423 487 36,000  Level Memphis Center
12:59PM 36.7319 -86.9939 245° Southwest 423 487 36,000  Level Memphis Center
01:00PM 36.6836 -87.1281 246° West 423 487 36,000  Level Memphis Center
01:01PM 36.6347 -87.2592 245° Southwest 423 487 36,000  Level Memphis Center
01:02PM 36.5858 -87.3903 245° Southwest 423 487 36,000  Level Memphis Center
01:03PM 36.5367 -87.5211 245° Southwest 423 487 36,000  Level Memphis Center
01:04PM 36.4875 -87.6494 245° Southwest 418 481 36,000  Level Memphis Center
01:05PM 36.4344 -87.7931 245° Southwest 423 487 36,000  Level Memphis Center
01:06PM 36.3847 -87.9236 245° Southwest 423 487 36,000  Level Memphis Center
01:07PM 36.3353 -88.0511 244° Southwest 423 487 36,000  Level Memphis Center
01:08PM 36.2975 -88.1631 247° West 416 479 36,000  Level Memphis Center
01:09PM 36.2478 -88.2906 244° Southwest 411 473 36,000  Level Memphis Center
01:10PM 36.1997 -88.4203 245° Southwest 411 473 36,000  Level Memphis Center
01:11PM 36.1475 -88.5500 244° Southwest 411 473 36,000 -120 Level Memphis Center
01:12PM 36.0992 -88.6769 245° Southwest 411 473 35,800 -600 Descending Memphis Center
01:13PM 36.0489 -88.8064 244° Southwest 411 473 34,800 -900 Descending Memphis Center
01:14PM 35.9961 -88.9383 244° Southwest 411 473 34,000 -420 Descending Memphis Center
01:15PM 35.9475 -89.0647 245° Southwest 416 479 34,000  Level Memphis Center
01:16PM 35.8944 -89.1961 244° Southwest 421 484 34,000  Level Memphis Center
01:17PM 35.8375 -89.3403 244° Southwest 426 490 34,000  Level Memphis Center
01:18PM 35.7864 -89.4742 245° Southwest 426 490 34,000  Level Memphis Center
01:19PM 35.7331 -89.6078 244° Southwest 431 496 34,000  Level Memphis Center
01:20PM 35.6919 -89.7153 245° Southwest 431 496 34,000  Level Memphis Center
01:21PM 35.6364 -89.8717 246° West 425 489 34,000 -180 Level Memphis Center
01:22PM 35.5825 -90.0072 244° Southwest 425 489 33,700 -720 Descending Memphis Center
01:23PM 35.5286 -90.1403 244° Southwest 425 489 32,600 -1,200 Descending Memphis Center
01:24PM 35.4744 -90.2678 242° Southwest 425 489 31,300 -2,160 Descending Memphis Center
01:25PM 35.4244 -90.3978 245° Southwest 425 489 28,300 -2,940 Descending Memphis Center
01:26PM 35.3703 -90.5250 242° Southwest 430 495 25,500 -2,160 Descending Memphis Center
01:27PM 35.3219 -90.6497 245° Southwest 425 489 24,000 -780 Descending Memphis Center
01:28PM 35.2717 -90.7717 243° Southwest 412 474 24,000 -420 Level Memphis Center
01:29PM 35.2189 -90.8908 242° Southwest 406 467 23,200 -1,680 Descending Memphis Center
01:30PM 35.1725 -91.0047 244° Southwest 394 453 20,700 -2,580 Descending Memphis Center
01:31PM 35.1239 -91.1264 244° Southwest 389 448 18,100 -2,220 Descending Memphis Center
01:32PM 35.0836 -91.2250 243° Southwest 383 441 16,300 -1,980 Descending Memphis Center
01:33PM 35.0350 -91.3336 241° Southwest 372 428 14,200 -2,160 Descending Memphis Center
01:34PM 34.9817 -91.4597 243° Southwest 344 396 11,800 -2,040 Descending Memphis Center
01:35PM 34.9475 -91.5478 245° Southwest 347 399 10,200 -1,380 Descending Memphis Center
01:36PM 34.9069 -91.6383 241° Southwest 325 374 9,200 -1,260 Descending Memphis Center
01:37PM 34.8728 -91.7139 241° Southwest 300 345 7,700 -1,560 Descending Memphis Center
01:38PM 34.8217 -91.8017 235° Southwest 293 337 6,100 -1,500 Descending Memphis Center
01:39PM 34.7686 -91.8764 229° Southwest 293 337 4,700 -1,440 Descending Memphis Center
01:40PM 34.7531 -91.9622 258° West 260 299 3,300 -1,380 Descending Memphis Center
01:41PM 34.7558 -92.0533 272° West 260 299 2,000 -720 Descending Memphis Center
01:42PM 34.7653 -92.1292 279° West 252 290 1,900 -600 Descending Memphis Center
01:43PM 34.7522 -92.1794 252° West 127 146 800 -480 Descending Memphis Center
01:44PM 34.7536 -92.2200 272° West 168 193 1,000 5,100 Climbing Memphis Center
01:45PM 34.7486 -92.2781 264° West 168 193 10,000 4,500 Climbing Memphis Center
01:46PM 34.7414 -92.3333 261° West 168 193 10,000  Level Memphis Center
01:48PM 34.7294 -92.2248 112° Southeast  Level Estimated
01:55PM 34.7294 -92.2248 112° Southeast  Level Estimated
01:56PM 34.7294 -92.2248 112° Southeast  Level Estimated
01:57PM 34.7294 -92.2248 112° Southeast  Level Estimated
01:58PM 34.7294 -92.2248 112° Southeast  Level Estimated